sensor_id;sensor_type;location;lat;lon;timestamp;P1;durP1;ratioP1;P2;durP2;ratioP2
46377;SDS011;32083;47.360;9.650;2022-10-17T00:00:55;5.40;;;4.90;;
46377;SDS011;32083;47.360;9.650;2022-10-17T00:04:19;6.85;;;4.65;;
46377;SDS011;32083;47.360;9.650;2022-10-17T00:07:54;9.68;;;4.65;;
46377;SDS011;32083;47.360;9.650;2022-10-17T00:16:26;4.25;;;3.85;;
46377;SDS011;32083;47.360;9.650;2022-10-17T00:19:58;4.97;;;4.47;;
46377;SDS011;32083;47.360;9.650;2022-10-17T00:26:04;8.73;;;5.25;;
46377;SDS011;32083;47.360;9.650;2022-10-17T00:29:31;6.22;;;4.13;;
46377;SDS011;32083;47.360;9.650;2022-10-17T00:33:19;8.55;;;4.15;;
46377;SDS011;32083;47.360;9.650;2022-10-17T00:36:15;6.65;;;4.90;;
46377;SDS011;32083;47.360;9.650;2022-10-17T00:42:19;7.05;;;4.32;;
46377;SDS011;32083;47.360;9.650;2022-10-17T00:45:22;6.63;;;4.45;;
46377;SDS011;32083;47.360;9.650;2022-10-17T01:11:44;4.10;;;3.50;;
46377;SDS011;32083;47.360;9.650;2022-10-17T01:26:22;5.95;;;3.42;;
46377;SDS011;32083;47.360;9.650;2022-10-17T01:32:56;5.68;;;3.70;;
46377;SDS011;32083;47.360;9.650;2022-10-17T01:52:26;5.47;;;3.50;;
46377;SDS011;32083;47.360;9.650;2022-10-17T01:55:31;5.07;;;3.67;;
46377;SDS011;32083;47.360;9.650;2022-10-17T01:58:55;6.72;;;4.00;;
46377;SDS011;32083;47.360;9.650;2022-10-17T02:04:44;7.32;;;3.65;;
46377;SDS011;32083;47.360;9.650;2022-10-17T02:07:34;3.58;;;2.88;;
46377;SDS011;32083;47.360;9.650;2022-10-17T02:17:13;6.40;;;3.53;;
46377;SDS011;32083;47.360;9.650;2022-10-17T02:29:28;4.95;;;3.33;;
46377;SDS011;32083;47.360;9.650;2022-10-17T02:32:58;5.82;;;3.40;;
46377;SDS011;32083;47.360;9.650;2022-10-17T02:36:38;4.88;;;3.38;;
46377;SDS011;32083;47.360;9.650;2022-10-17T02:40:03;6.57;;;3.40;;
46377;SDS011;32083;47.360;9.650;2022-10-17T02:45:43;4.35;;;3.35;;
46377;SDS011;32083;47.360;9.650;2022-10-17T02:59:08;5.57;;;2.63;;
46377;SDS011;32083;47.360;9.650;2022-10-17T03:01:48;5.15;;;3.08;;
46377;SDS011;32083;47.360;9.650;2022-10-17T03:09:48;6.82;;;3.50;;
46377;SDS011;32083;47.360;9.650;2022-10-17T03:12:57;7.00;;;3.33;;
46377;SDS011;32083;47.360;9.650;2022-10-17T03:16:25;4.33;;;3.40;;
46377;SDS011;32083;47.360;9.650;2022-10-17T03:19:55;10.13;;;3.38;;
46377;SDS011;32083;47.360;9.650;2022-10-17T03:25:08;6.97;;;3.67;;
46377;SDS011;32083;47.360;9.650;2022-10-17T03:28:35;5.22;;;3.47;;
46377;SDS011;32083;47.360;9.650;2022-10-17T03:31:36;3.20;;;2.90;;
46377;SDS011;32083;47.360;9.650;2022-10-17T03:39:42;6.45;;;4.07;;
46377;SDS011;32083;47.360;9.650;2022-10-17T03:52:11;8.18;;;3.45;;
46377;SDS011;32083;47.360;9.650;2022-10-17T04:03:31;6.45;;;3.60;;
46377;SDS011;32083;47.360;9.650;2022-10-17T04:06:01;5.03;;;3.25;;
46377;SDS011;32083;47.360;9.650;2022-10-17T04:08:28;5.32;;;3.47;;
46377;SDS011;32083;47.360;9.650;2022-10-17T04:10:58;6.13;;;3.88;;
46377;SDS011;32083;47.360;9.650;2022-10-17T04:13:28;6.00;;;3.22;;
46377;SDS011;32083;47.360;9.650;2022-10-17T04:15:59;7.15;;;3.35;;
46377;SDS011;32083;47.360;9.650;2022-10-17T04:18:27;9.02;;;3.88;;
46377;SDS011;32083;47.360;9.650;2022-10-17T04:20:53;61.30;;;40.53;;
46377;SDS011;32083;47.360;9.650;2022-10-17T04:23:19;16.10;;;6.55;;
46377;SDS011;32083;47.360;9.650;2022-10-17T04:25:45;12.73;;;8.32;;
46377;SDS011;32083;47.360;9.650;2022-10-17T04:28:11;6.47;;;3.72;;
46377;SDS011;32083;47.360;9.650;2022-10-17T04:30:37;8.50;;;5.00;;
46377;SDS011;32083;47.360;9.650;2022-10-17T04:33:04;10.48;;;5.03;;
46377;SDS011;32083;47.360;9.650;2022-10-17T04:35:30;7.00;;;4.05;;
46377;SDS011;32083;47.360;9.650;2022-10-17T04:37:56;9.25;;;4.22;;
46377;SDS011;32083;47.360;9.650;2022-10-17T04:40:22;10.30;;;3.72;;
46377;SDS011;32083;47.360;9.650;2022-10-17T04:42:48;9.52;;;4.03;;
46377;SDS011;32083;47.360;9.650;2022-10-17T04:45:14;4.60;;;3.80;;
46377;SDS011;32083;47.360;9.650;2022-10-17T04:47:40;5.38;;;3.63;;
46377;SDS011;32083;47.360;9.650;2022-10-17T04:50:06;6.10;;;3.67;;
46377;SDS011;32083;47.360;9.650;2022-10-17T04:52:33;6.15;;;3.85;;
46377;SDS011;32083;47.360;9.650;2022-10-17T04:55:03;10.85;;;3.78;;
46377;SDS011;32083;47.360;9.650;2022-10-17T04:57:32;6.90;;;4.03;;
46377;SDS011;32083;47.360;9.650;2022-10-17T04:59:59;5.95;;;5.03;;
46377;SDS011;32083;47.360;9.650;2022-10-17T05:02:26;5.93;;;4.13;;
46377;SDS011;32083;47.360;9.650;2022-10-17T05:04:52;12.10;;;5.32;;
46377;SDS011;32083;47.360;9.650;2022-10-17T05:07:18;9.63;;;5.13;;
46377;SDS011;32083;47.360;9.650;2022-10-17T05:09:44;10.35;;;4.80;;
46377;SDS011;32083;47.360;9.650;2022-10-17T05:12:10;6.82;;;5.65;;
46377;SDS011;32083;47.360;9.650;2022-10-17T05:14:36;5.40;;;4.65;;
46377;SDS011;32083;47.360;9.650;2022-10-17T05:17:01;6.05;;;4.18;;
46377;SDS011;32083;47.360;9.650;2022-10-17T05:19:27;6.13;;;4.35;;
46377;SDS011;32083;47.360;9.650;2022-10-17T05:21:54;7.72;;;4.40;;
46377;SDS011;32083;47.360;9.650;2022-10-17T05:24:20;9.45;;;4.07;;
46377;SDS011;32083;47.360;9.650;2022-10-17T05:26:46;10.05;;;4.85;;
46377;SDS011;32083;47.360;9.650;2022-10-17T05:29:15;8.68;;;5.03;;
46377;SDS011;32083;47.360;9.650;2022-10-17T05:31:41;6.75;;;4.40;;
46377;SDS011;32083;47.360;9.650;2022-10-17T05:34:07;12.13;;;4.13;;
46377;SDS011;32083;47.360;9.650;2022-10-17T05:36:33;9.30;;;4.57;;
46377;SDS011;32083;47.360;9.650;2022-10-17T05:38:59;8.50;;;5.20;;
46377;SDS011;32083;47.360;9.650;2022-10-17T05:41:25;7.68;;;4.15;;
46377;SDS011;32083;47.360;9.650;2022-10-17T05:43:51;12.27;;;4.93;;
46377;SDS011;32083;47.360;9.650;2022-10-17T05:46:17;8.82;;;4.85;;
46377;SDS011;32083;47.360;9.650;2022-10-17T05:48:43;13.15;;;5.60;;
46377;SDS011;32083;47.360;9.650;2022-10-17T05:51:09;14.82;;;5.53;;
46377;SDS011;32083;47.360;9.650;2022-10-17T05:53:37;10.45;;;6.43;;
46377;SDS011;32083;47.360;9.650;2022-10-17T05:56:05;9.57;;;6.38;;
46377;SDS011;32083;47.360;9.650;2022-10-17T05:58:32;9.50;;;6.10;;
46377;SDS011;32083;47.360;9.650;2022-10-17T06:00:59;7.57;;;6.60;;
46377;SDS011;32083;47.360;9.650;2022-10-17T06:03:27;9.98;;;7.22;;
46377;SDS011;32083;47.360;9.650;2022-10-17T06:05:54;19.05;;;8.52;;
46377;SDS011;32083;47.360;9.650;2022-10-17T06:08:20;19.00;;;8.18;;
46377;SDS011;32083;47.360;9.650;2022-10-17T06:10:49;16.67;;;8.95;;
46377;SDS011;32083;47.360;9.650;2022-10-17T06:13:16;14.30;;;6.70;;
46377;SDS011;32083;47.360;9.650;2022-10-17T06:15:42;9.23;;;7.10;;
46377;SDS011;32083;47.360;9.650;2022-10-17T06:18:09;10.27;;;6.88;;
46377;SDS011;32083;47.360;9.650;2022-10-17T06:20:35;12.55;;;7.20;;
46377;SDS011;32083;47.360;9.650;2022-10-17T06:23:02;8.30;;;6.55;;
46377;SDS011;32083;47.360;9.650;2022-10-17T06:25:31;8.75;;;6.50;;
46377;SDS011;32083;47.360;9.650;2022-10-17T06:27:57;10.52;;;6.32;;
46377;SDS011;32083;47.360;9.650;2022-10-17T06:30:23;18.70;;;8.55;;
46377;SDS011;32083;47.360;9.650;2022-10-17T06:32:50;20.42;;;8.30;;
46377;SDS011;32083;47.360;9.650;2022-10-17T06:35:17;23.23;;;8.68;;
46377;SDS011;32083;47.360;9.650;2022-10-17T06:37:43;28.60;;;10.70;;
46377;SDS011;32083;47.360;9.650;2022-10-17T06:40:09;17.30;;;8.27;;
46377;SDS011;32083;47.360;9.650;2022-10-17T06:42:37;13.50;;;6.78;;
46377;SDS011;32083;47.360;9.650;2022-10-17T06:45:03;13.60;;;7.97;;
46377;SDS011;32083;47.360;9.650;2022-10-17T06:47:30;13.70;;;7.50;;
46377;SDS011;32083;47.360;9.650;2022-10-17T06:49:56;18.15;;;9.00;;
46377;SDS011;32083;47.360;9.650;2022-10-17T06:52:22;17.23;;;7.53;;
46377;SDS011;32083;47.360;9.650;2022-10-17T06:54:48;13.68;;;7.30;;
46377;SDS011;32083;47.360;9.650;2022-10-17T06:57:15;12.30;;;6.93;;
46377;SDS011;32083;47.360;9.650;2022-10-17T06:59:42;17.63;;;7.65;;
46377;SDS011;32083;47.360;9.650;2022-10-17T07:02:08;17.73;;;8.40;;
46377;SDS011;32083;47.360;9.650;2022-10-17T07:04:35;11.52;;;7.13;;
46377;SDS011;32083;47.360;9.650;2022-10-17T07:07:01;14.38;;;7.05;;
46377;SDS011;32083;47.360;9.650;2022-10-17T07:09:28;12.27;;;9.70;;
46377;SDS011;32083;47.360;9.650;2022-10-17T07:11:55;14.50;;;7.45;;
46377;SDS011;32083;47.360;9.650;2022-10-17T07:14:21;11.07;;;6.63;;
46377;SDS011;32083;47.360;9.650;2022-10-17T07:16:48;15.18;;;8.35;;
46377;SDS011;32083;47.360;9.650;2022-10-17T07:19:14;11.80;;;6.65;;
46377;SDS011;32083;47.360;9.650;2022-10-17T07:21:40;9.50;;;5.93;;
46377;SDS011;32083;47.360;9.650;2022-10-17T07:24:06;7.88;;;5.13;;
46377;SDS011;32083;47.360;9.650;2022-10-17T07:26:32;7.68;;;5.38;;
46377;SDS011;32083;47.360;9.650;2022-10-17T07:28:58;7.53;;;5.75;;
46377;SDS011;32083;47.360;9.650;2022-10-17T07:31:25;7.82;;;5.35;;
46377;SDS011;32083;47.360;9.650;2022-10-17T07:33:51;12.00;;;5.38;;
46377;SDS011;32083;47.360;9.650;2022-10-17T07:36:17;8.20;;;6.28;;
46377;SDS011;32083;47.360;9.650;2022-10-17T07:38:43;13.13;;;6.57;;
46377;SDS011;32083;47.360;9.650;2022-10-17T07:41:10;14.27;;;6.03;;
46377;SDS011;32083;47.360;9.650;2022-10-17T07:43:37;10.27;;;5.80;;
46377;SDS011;32083;47.360;9.650;2022-10-17T07:46:05;12.50;;;5.28;;
46377;SDS011;32083;47.360;9.650;2022-10-17T07:48:32;13.48;;;5.68;;
46377;SDS011;32083;47.360;9.650;2022-10-17T07:51:02;10.98;;;5.70;;
46377;SDS011;32083;47.360;9.650;2022-10-17T07:53:30;7.95;;;4.50;;
46377;SDS011;32083;47.360;9.650;2022-10-17T07:55:56;7.53;;;6.35;;
46377;SDS011;32083;47.360;9.650;2022-10-17T07:58:22;8.95;;;7.03;;
46377;SDS011;32083;47.360;9.650;2022-10-17T08:00:49;10.07;;;6.95;;
46377;SDS011;32083;47.360;9.650;2022-10-17T08:03:16;8.55;;;5.43;;
46377;SDS011;32083;47.360;9.650;2022-10-17T08:05:42;9.20;;;5.50;;
46377;SDS011;32083;47.360;9.650;2022-10-17T08:08:08;11.40;;;5.78;;
46377;SDS011;32083;47.360;9.650;2022-10-17T08:10:34;9.77;;;5.40;;
46377;SDS011;32083;47.360;9.650;2022-10-17T08:13:01;8.68;;;5.90;;
46377;SDS011;32083;47.360;9.650;2022-10-17T08:15:26;6.57;;;4.07;;
46377;SDS011;32083;47.360;9.650;2022-10-17T08:17:53;9.38;;;4.72;;
46377;SDS011;32083;47.360;9.650;2022-10-17T08:20:19;7.10;;;4.13;;
46377;SDS011;32083;47.360;9.650;2022-10-17T08:22:52;6.80;;;4.25;;
46377;SDS011;32083;47.360;9.650;2022-10-17T08:25:19;6.18;;;3.63;;
46377;SDS011;32083;47.360;9.650;2022-10-17T08:27:45;6.03;;;2.90;;
46377;SDS011;32083;47.360;9.650;2022-10-17T08:30:11;3.95;;;3.15;;
46377;SDS011;32083;47.360;9.650;2022-10-17T08:32:37;6.05;;;3.65;;
46377;SDS011;32083;47.360;9.650;2022-10-17T08:35:03;9.63;;;4.35;;
46377;SDS011;32083;47.360;9.650;2022-10-17T08:37:29;5.18;;;4.13;;
46377;SDS011;32083;47.360;9.650;2022-10-17T08:39:56;4.05;;;3.50;;
46377;SDS011;32083;47.360;9.650;2022-10-17T08:47:48;4.97;;;2.97;;
46377;SDS011;32083;47.360;9.650;2022-10-17T08:56:04;7.18;;;3.35;;
46377;SDS011;32083;47.360;9.650;2022-10-17T08:58:39;8.50;;;3.35;;
46377;SDS011;32083;47.360;9.650;2022-10-17T09:09:49;4.70;;;3.95;;
46377;SDS011;32083;47.360;9.650;2022-10-17T09:12:47;8.07;;;3.45;;
46377;SDS011;32083;47.360;9.650;2022-10-17T09:20:27;6.72;;;4.03;;
46377;SDS011;32083;47.360;9.650;2022-10-17T09:25:52;10.48;;;3.92;;
46377;SDS011;32083;47.360;9.650;2022-10-17T09:30:55;8.63;;;3.45;;
46377;SDS011;32083;47.360;9.650;2022-10-17T09:33:43;9.27;;;4.57;;
46377;SDS011;32083;47.360;9.650;2022-10-17T09:36:22;9.52;;;4.60;;
46377;SDS011;32083;47.360;9.650;2022-10-17T09:38:59;7.63;;;4.20;;
46377;SDS011;32083;47.360;9.650;2022-10-17T09:41:50;8.30;;;4.25;;
46377;SDS011;32083;47.360;9.650;2022-10-17T09:44:22;11.43;;;4.70;;
46377;SDS011;32083;47.360;9.650;2022-10-17T09:46:57;7.78;;;4.75;;
46377;SDS011;32083;47.360;9.650;2022-10-17T09:49:44;7.07;;;3.50;;
46377;SDS011;32083;47.360;9.650;2022-10-17T09:55:04;6.38;;;3.60;;
46377;SDS011;32083;47.360;9.650;2022-10-17T10:00:25;4.38;;;3.20;;
46377;SDS011;32083;47.360;9.650;2022-10-17T10:08:55;5.65;;;3.45;;
46377;SDS011;32083;47.360;9.650;2022-10-17T10:14:23;4.20;;;3.80;;
46377;SDS011;32083;47.360;9.650;2022-10-17T10:16:54;7.15;;;4.00;;
46377;SDS011;32083;47.360;9.650;2022-10-17T10:21:54;9.55;;;4.72;;
46377;SDS011;32083;47.360;9.650;2022-10-17T10:24:22;5.95;;;3.90;;
46377;SDS011;32083;47.360;9.650;2022-10-17T10:26:49;6.35;;;4.07;;
46377;SDS011;32083;47.360;9.650;2022-10-17T10:29:27;5.50;;;3.72;;
46377;SDS011;32083;47.360;9.650;2022-10-17T10:34:56;5.53;;;4.65;;
46377;SDS011;32083;47.360;9.650;2022-10-17T10:37:27;8.63;;;4.45;;
46377;SDS011;32083;47.360;9.650;2022-10-17T10:40:06;6.40;;;4.35;;
46377;SDS011;32083;47.360;9.650;2022-10-17T10:42:54;5.28;;;4.70;;
46377;SDS011;32083;47.360;9.650;2022-10-17T10:50:36;6.43;;;5.45;;
46377;SDS011;32083;47.360;9.650;2022-10-17T10:53:19;6.30;;;5.68;;
46377;SDS011;32083;47.360;9.650;2022-10-17T10:56:00;7.45;;;5.75;;
46377;SDS011;32083;47.360;9.650;2022-10-17T11:04:16;11.25;;;5.90;;
46377;SDS011;32083;47.360;9.650;2022-10-17T11:06:51;7.60;;;5.57;;
46377;SDS011;32083;47.360;9.650;2022-10-17T11:12:34;7.70;;;5.82;;
46377;SDS011;32083;47.360;9.650;2022-10-17T11:17:56;9.80;;;5.97;;
46377;SDS011;32083;47.360;9.650;2022-10-17T11:26:04;9.68;;;5.65;;
46377;SDS011;32083;47.360;9.650;2022-10-17T11:28:35;8.07;;;4.97;;
46377;SDS011;32083;47.360;9.650;2022-10-17T11:33:45;9.07;;;5.22;;
46377;SDS011;32083;47.360;9.650;2022-10-17T11:36:19;6.45;;;4.75;;
46377;SDS011;32083;47.360;9.650;2022-10-17T11:38:50;5.55;;;4.95;;
46377;SDS011;32083;47.360;9.650;2022-10-17T11:44:07;6.15;;;4.40;;
46377;SDS011;32083;47.360;9.650;2022-10-17T11:49:49;10.40;;;5.00;;
46377;SDS011;32083;47.360;9.650;2022-10-17T11:55:15;5.20;;;3.92;;
46377;SDS011;32083;47.360;9.650;2022-10-17T11:58:05;5.57;;;4.43;;
46377;SDS011;32083;47.360;9.650;2022-10-17T12:11:56;4.28;;;3.10;;
46377;SDS011;32083;47.360;9.650;2022-10-17T12:22:57;5.30;;;2.75;;
46377;SDS011;32083;47.360;9.650;2022-10-17T12:25:31;4.47;;;3.38;;
46377;SDS011;32083;47.360;9.650;2022-10-17T12:30:31;4.55;;;2.75;;
46377;SDS011;32083;47.360;9.650;2022-10-17T12:33:17;6.68;;;3.50;;
46377;SDS011;32083;47.360;9.650;2022-10-17T12:38:41;4.53;;;3.63;;
46377;SDS011;32083;47.360;9.650;2022-10-17T12:41:12;4.70;;;3.70;;
46377;SDS011;32083;47.360;9.650;2022-10-17T12:43:48;5.47;;;2.83;;
46377;SDS011;32083;47.360;9.650;2022-10-17T12:52:05;3.22;;;2.75;;
46377;SDS011;32083;47.360;9.650;2022-10-17T12:54:39;3.33;;;2.78;;
46377;SDS011;32083;47.360;9.650;2022-10-17T12:57:18;4.50;;;2.43;;
46377;SDS011;32083;47.360;9.650;2022-10-17T12:59:55;4.43;;;2.70;;
46377;SDS011;32083;47.360;9.650;2022-10-17T13:02:23;2.65;;;2.22;;
46377;SDS011;32083;47.360;9.650;2022-10-17T13:04:54;4.82;;;2.78;;
46377;SDS011;32083;47.360;9.650;2022-10-17T13:07:33;4.72;;;2.58;;
46377;SDS011;32083;47.360;9.650;2022-10-17T13:10:00;4.05;;;3.17;;
46377;SDS011;32083;47.360;9.650;2022-10-17T13:12:29;3.65;;;2.65;;
46377;SDS011;32083;47.360;9.650;2022-10-17T13:14:59;4.30;;;2.35;;
46377;SDS011;32083;47.360;9.650;2022-10-17T13:17:30;5.60;;;2.38;;
46377;SDS011;32083;47.360;9.650;2022-10-17T13:19:56;4.00;;;2.35;;
46377;SDS011;32083;47.360;9.650;2022-10-17T13:22:24;4.03;;;2.47;;
46377;SDS011;32083;47.360;9.650;2022-10-17T13:24:55;5.07;;;2.65;;
46377;SDS011;32083;47.360;9.650;2022-10-17T13:27:48;4.50;;;2.50;;
46377;SDS011;32083;47.360;9.650;2022-10-17T13:32:48;5.22;;;3.67;;
46377;SDS011;32083;47.360;9.650;2022-10-17T13:35:15;4.18;;;3.10;;
46377;SDS011;32083;47.360;9.650;2022-10-17T13:37:48;15.90;;;4.80;;
46377;SDS011;32083;47.360;9.650;2022-10-17T13:40:25;4.88;;;2.70;;
46377;SDS011;32083;47.360;9.650;2022-10-17T13:42:54;3.25;;;2.42;;
46377;SDS011;32083;47.360;9.650;2022-10-17T13:47:50;3.72;;;2.78;;
46377;SDS011;32083;47.360;9.650;2022-10-17T13:50:22;4.95;;;2.70;;
46377;SDS011;32083;47.360;9.650;2022-10-17T13:56:02;11.60;;;3.03;;
46377;SDS011;32083;47.360;9.650;2022-10-17T13:58:40;5.28;;;2.35;;
46377;SDS011;32083;47.360;9.650;2022-10-17T14:01:08;4.18;;;2.75;;
46377;SDS011;32083;47.360;9.650;2022-10-17T14:03:36;5.38;;;3.08;;
46377;SDS011;32083;47.360;9.650;2022-10-17T14:06:04;6.38;;;2.55;;
46377;SDS011;32083;47.360;9.650;2022-10-17T14:08:49;8.88;;;3.15;;
46377;SDS011;32083;47.360;9.650;2022-10-17T14:11:38;7.05;;;3.15;;
46377;SDS011;32083;47.360;9.650;2022-10-17T14:14:04;6.03;;;2.70;;
46377;SDS011;32083;47.360;9.650;2022-10-17T14:16:33;9.50;;;3.05;;
46377;SDS011;32083;47.360;9.650;2022-10-17T14:19:03;8.30;;;3.28;;
46377;SDS011;32083;47.360;9.650;2022-10-17T14:21:31;8.07;;;2.90;;
46377;SDS011;32083;47.360;9.650;2022-10-17T14:24:14;3.45;;;2.70;;
46377;SDS011;32083;47.360;9.650;2022-10-17T14:29:23;4.38;;;2.58;;
46377;SDS011;32083;47.360;9.650;2022-10-17T14:31:57;8.18;;;3.70;;
46377;SDS011;32083;47.360;9.650;2022-10-17T14:34:38;9.05;;;2.70;;
46377;SDS011;32083;47.360;9.650;2022-10-17T14:37:09;4.95;;;2.85;;
46377;SDS011;32083;47.360;9.650;2022-10-17T14:39:52;3.95;;;2.80;;
46377;SDS011;32083;47.360;9.650;2022-10-17T14:42:21;4.70;;;2.17;;
46377;SDS011;32083;47.360;9.650;2022-10-17T14:44:48;8.40;;;2.92;;
46377;SDS011;32083;47.360;9.650;2022-10-17T14:47:19;4.38;;;2.38;;
46377;SDS011;32083;47.360;9.650;2022-10-17T14:49:50;5.53;;;2.20;;
46377;SDS011;32083;47.360;9.650;2022-10-17T14:52:28;6.25;;;2.40;;
46377;SDS011;32083;47.360;9.650;2022-10-17T14:54:55;6.53;;;2.28;;
46377;SDS011;32083;47.360;9.650;2022-10-17T14:57:27;3.58;;;2.00;;
46377;SDS011;32083;47.360;9.650;2022-10-17T15:00:05;3.15;;;2.20;;
46377;SDS011;32083;47.360;9.650;2022-10-17T15:02:31;6.20;;;2.55;;
46377;SDS011;32083;47.360;9.650;2022-10-17T15:04:57;5.65;;;2.15;;
46377;SDS011;32083;47.360;9.650;2022-10-17T15:07:23;5.28;;;2.53;;
46377;SDS011;32083;47.360;9.650;2022-10-17T15:09:50;6.72;;;2.78;;
46377;SDS011;32083;47.360;9.650;2022-10-17T15:12:18;7.05;;;3.20;;
46377;SDS011;32083;47.360;9.650;2022-10-17T15:14:45;6.07;;;2.83;;
46377;SDS011;32083;47.360;9.650;2022-10-17T15:17:26;8.75;;;3.42;;
46377;SDS011;32083;47.360;9.650;2022-10-17T15:19:54;8.10;;;3.92;;
46377;SDS011;32083;47.360;9.650;2022-10-17T15:22:21;4.50;;;2.88;;
46377;SDS011;32083;47.360;9.650;2022-10-17T15:24:47;7.43;;;3.30;;
46377;SDS011;32083;47.360;9.650;2022-10-17T15:27:17;6.10;;;2.40;;
46377;SDS011;32083;47.360;9.650;2022-10-17T15:29:45;4.75;;;2.67;;
46377;SDS011;32083;47.360;9.650;2022-10-17T15:32:12;4.25;;;2.88;;
46377;SDS011;32083;47.360;9.650;2022-10-17T15:34:38;5.43;;;2.85;;
46377;SDS011;32083;47.360;9.650;2022-10-17T15:37:05;6.03;;;2.90;;
46377;SDS011;32083;47.360;9.650;2022-10-17T15:39:38;5.45;;;2.92;;
46377;SDS011;32083;47.360;9.650;2022-10-17T15:42:07;5.25;;;2.95;;
46377;SDS011;32083;47.360;9.650;2022-10-17T15:44:35;8.00;;;3.55;;
46377;SDS011;32083;47.360;9.650;2022-10-17T15:47:01;3.42;;;3.08;;
46377;SDS011;32083;47.360;9.650;2022-10-17T15:49:28;6.63;;;3.33;;
46377;SDS011;32083;47.360;9.650;2022-10-17T15:51:54;10.98;;;3.17;;
46377;SDS011;32083;47.360;9.650;2022-10-17T15:54:20;7.00;;;3.63;;
46377;SDS011;32083;47.360;9.650;2022-10-17T15:56:48;17.02;;;3.90;;
46377;SDS011;32083;47.360;9.650;2022-10-17T15:59:19;4.77;;;3.23;;
46377;SDS011;32083;47.360;9.650;2022-10-17T16:01:47;5.32;;;3.17;;
46377;SDS011;32083;47.360;9.650;2022-10-17T16:04:13;5.03;;;3.20;;
46377;SDS011;32083;47.360;9.650;2022-10-17T16:06:43;5.43;;;3.22;;
46377;SDS011;32083;47.360;9.650;2022-10-17T16:09:09;5.43;;;2.83;;
46377;SDS011;32083;47.360;9.650;2022-10-17T16:11:36;4.57;;;2.97;;
46377;SDS011;32083;47.360;9.650;2022-10-17T16:14:05;13.05;;;4.60;;
46377;SDS011;32083;47.360;9.650;2022-10-17T16:16:34;6.60;;;3.83;;
46377;SDS011;32083;47.360;9.650;2022-10-17T16:19:00;8.02;;;3.45;;
46377;SDS011;32083;47.360;9.650;2022-10-17T16:21:27;4.43;;;3.97;;
46377;SDS011;32083;47.360;9.650;2022-10-17T16:23:55;6.25;;;3.92;;
46377;SDS011;32083;47.360;9.650;2022-10-17T16:26:22;4.70;;;2.88;;
46377;SDS011;32083;47.360;9.650;2022-10-17T16:28:48;6.97;;;3.25;;
46377;SDS011;32083;47.360;9.650;2022-10-17T16:34:12;7.57;;;3.63;;
46377;SDS011;32083;47.360;9.650;2022-10-17T16:36:39;11.65;;;4.00;;
46377;SDS011;32083;47.360;9.650;2022-10-17T16:39:06;7.25;;;3.75;;
46377;SDS011;32083;47.360;9.650;2022-10-17T16:41:33;5.72;;;3.72;;
46377;SDS011;32083;47.360;9.650;2022-10-17T16:44:02;14.88;;;4.28;;
46377;SDS011;32083;47.360;9.650;2022-10-17T16:46:29;4.80;;;3.92;;
46377;SDS011;32083;47.360;9.650;2022-10-17T16:48:57;11.27;;;4.85;;
46377;SDS011;32083;47.360;9.650;2022-10-17T16:51:24;13.57;;;5.25;;
46377;SDS011;32083;47.360;9.650;2022-10-17T16:53:50;11.52;;;4.38;;
46377;SDS011;32083;47.360;9.650;2022-10-17T16:56:21;5.47;;;4.70;;
46377;SDS011;32083;47.360;9.650;2022-10-17T16:58:49;8.55;;;5.20;;
46377;SDS011;32083;47.360;9.650;2022-10-17T17:01:19;7.10;;;5.40;;
46377;SDS011;32083;47.360;9.650;2022-10-17T17:03:47;8.15;;;5.80;;
46377;SDS011;32083;47.360;9.650;2022-10-17T17:06:14;6.93;;;5.60;;
46377;SDS011;32083;47.360;9.650;2022-10-17T17:08:45;7.75;;;5.82;;
46377;SDS011;32083;47.360;9.650;2022-10-17T17:11:12;9.82;;;5.60;;
46377;SDS011;32083;47.360;9.650;2022-10-17T17:13:40;9.25;;;5.75;;
46377;SDS011;32083;47.360;9.650;2022-10-17T17:16:08;8.80;;;6.65;;
46377;SDS011;32083;47.360;9.650;2022-10-17T17:18:34;10.07;;;5.93;;
46377;SDS011;32083;47.360;9.650;2022-10-17T17:21:01;9.07;;;6.25;;
46377;SDS011;32083;47.360;9.650;2022-10-17T17:23:29;9.63;;;5.80;;
46377;SDS011;32083;47.360;9.650;2022-10-17T17:25:57;9.80;;;7.35;;
46377;SDS011;32083;47.360;9.650;2022-10-17T17:28:23;9.82;;;6.32;;
46377;SDS011;32083;47.360;9.650;2022-10-17T17:30:50;8.82;;;6.75;;
46377;SDS011;32083;47.360;9.650;2022-10-17T17:33:16;8.95;;;6.13;;
46377;SDS011;32083;47.360;9.650;2022-10-17T17:35:42;8.32;;;6.30;;
46377;SDS011;32083;47.360;9.650;2022-10-17T17:38:09;9.18;;;6.85;;
46377;SDS011;32083;47.360;9.650;2022-10-17T17:40:35;8.52;;;7.20;;
46377;SDS011;32083;47.360;9.650;2022-10-17T17:43:01;11.10;;;7.25;;
46377;SDS011;32083;47.360;9.650;2022-10-17T17:45:27;10.45;;;7.57;;
46377;SDS011;32083;47.360;9.650;2022-10-17T17:47:53;9.30;;;7.72;;
46377;SDS011;32083;47.360;9.650;2022-10-17T17:50:19;12.45;;;8.82;;
46377;SDS011;32083;47.360;9.650;2022-10-17T17:52:45;12.50;;;9.13;;
46377;SDS011;32083;47.360;9.650;2022-10-17T17:55:14;13.90;;;9.93;;
46377;SDS011;32083;47.360;9.650;2022-10-17T17:57:41;17.85;;;12.30;;
46377;SDS011;32083;47.360;9.650;2022-10-17T18:00:07;12.05;;;10.70;;
46377;SDS011;32083;47.360;9.650;2022-10-17T18:02:33;16.25;;;13.75;;
46377;SDS011;32083;47.360;9.650;2022-10-17T18:04:59;21.08;;;13.52;;
46377;SDS011;32083;47.360;9.650;2022-10-17T18:07:26;18.50;;;10.80;;
46377;SDS011;32083;47.360;9.650;2022-10-17T18:09:52;10.90;;;9.77;;
46377;SDS011;32083;47.360;9.650;2022-10-17T18:12:18;11.30;;;9.90;;
46377;SDS011;32083;47.360;9.650;2022-10-17T18:14:44;13.60;;;9.73;;
46377;SDS011;32083;47.360;9.650;2022-10-17T18:17:10;13.70;;;9.80;;
46377;SDS011;32083;47.360;9.650;2022-10-17T18:19:36;12.88;;;9.70;;
46377;SDS011;32083;47.360;9.650;2022-10-17T18:22:02;17.35;;;12.13;;
46377;SDS011;32083;47.360;9.650;2022-10-17T18:24:28;13.07;;;11.60;;
46377;SDS011;32083;47.360;9.650;2022-10-17T18:26:55;12.77;;;10.50;;
46377;SDS011;32083;47.360;9.650;2022-10-17T18:29:24;14.55;;;11.95;;
46377;SDS011;32083;47.360;9.650;2022-10-17T18:31:50;16.38;;;11.27;;
46377;SDS011;32083;47.360;9.650;2022-10-17T18:34:17;14.98;;;10.38;;
46377;SDS011;32083;47.360;9.650;2022-10-17T18:36:42;14.70;;;11.98;;
46377;SDS011;32083;47.360;9.650;2022-10-17T18:39:09;19.60;;;13.57;;
46377;SDS011;32083;47.360;9.650;2022-10-17T18:41:35;27.42;;;14.15;;
46377;SDS011;32083;47.360;9.650;2022-10-17T18:44:01;16.38;;;12.40;;
46377;SDS011;32083;47.360;9.650;2022-10-17T18:46:30;24.10;;;12.32;;
46377;SDS011;32083;47.360;9.650;2022-10-17T18:49:00;20.33;;;12.65;;
46377;SDS011;32083;47.360;9.650;2022-10-17T18:51:26;19.60;;;13.80;;
46377;SDS011;32083;47.360;9.650;2022-10-17T18:53:53;18.58;;;12.00;;
46377;SDS011;32083;47.360;9.650;2022-10-17T18:56:22;15.32;;;11.68;;
46377;SDS011;32083;47.360;9.650;2022-10-17T18:58:49;17.08;;;12.23;;
46377;SDS011;32083;47.360;9.650;2022-10-17T19:01:16;16.88;;;11.68;;
46377;SDS011;32083;47.360;9.650;2022-10-17T19:03:47;19.50;;;13.73;;
46377;SDS011;32083;47.360;9.650;2022-10-17T19:06:15;19.92;;;13.07;;
46377;SDS011;32083;47.360;9.650;2022-10-17T19:08:43;24.98;;;13.55;;
46377;SDS011;32083;47.360;9.650;2022-10-17T19:11:14;14.68;;;11.95;;
46377;SDS011;32083;47.360;9.650;2022-10-17T19:13:44;20.33;;;11.73;;
46377;SDS011;32083;47.360;9.650;2022-10-17T19:16:13;12.75;;;10.43;;
46377;SDS011;32083;47.360;9.650;2022-10-17T19:18:41;19.52;;;11.00;;
46377;SDS011;32083;47.360;9.650;2022-10-17T19:21:08;15.77;;;10.15;;
46377;SDS011;32083;47.360;9.650;2022-10-17T19:23:35;13.73;;;9.52;;
46377;SDS011;32083;47.360;9.650;2022-10-17T19:26:06;13.07;;;8.68;;
46377;SDS011;32083;47.360;9.650;2022-10-17T19:28:34;13.63;;;10.75;;
46377;SDS011;32083;47.360;9.650;2022-10-17T19:31:02;19.50;;;11.52;;
46377;SDS011;32083;47.360;9.650;2022-10-17T19:33:29;18.70;;;12.95;;
46377;SDS011;32083;47.360;9.650;2022-10-17T19:35:57;17.58;;;11.85;;